Time;durP1;ratioP1;P1;durP2;ratioP2;P2;SDS_P1;SDS_P2;PMS_P1;PMS_P2;Temp;Humidity;BMP_temperature;BMP_pressure;BME280_temperature;BME280_humidity;BME280_pressure;Samples;Min_cycle;Max_cycle;Signal;HPM_P1;HPM_P2
2022/05/30 00:00:09;;;;;;;5.43;2.45;;;4.50;97.20;;;;;;5054257;28;20037;-68
2022/05/30 00:02:35;;;;;;;6.20;2.47;;;4.50;97.20;;;;;;5055873;28;20120;-69
2022/05/30 00:05:01;;;;;;;5.85;2.70;;;4.40;97.30;;;;;;5055267;28;20504;-68
2022/05/30 00:07:27;;;;;;;4.40;2.50;;;4.30;97.40;;;;;;5055057;28;20287;-68
2022/05/30 00:09:54;;;;;;;6.47;2.70;;;4.30;97.60;;;;;;5047938;28;20306;-68
2022/05/30 00:12:20;;;;;;;6.05;2.38;;;4.30;97.60;;;;;;5052687;28;20493;-68
2022/05/30 00:14:46;;;;;;;5.25;2.75;;;4.40;97.70;;;;;;5053884;28;20158;-68
2022/05/30 00:17:12;;;;;;;5.88;2.47;;;4.40;97.70;;;;;;5053529;28;20028;-68
2022/05/30 00:19:39;;;;;;;4.45;2.40;;;4.50;97.60;;;;;;5054848;28;20036;-68
2022/05/30 00:22:11;;;;;;;9.05;2.65;;;4.40;97.50;;;;;;5054708;28;20039;-68
2022/05/30 00:24:37;;;;;;;6.05;2.70;;;4.40;97.60;;;;;;5054673;28;20028;-69
2022/05/30 00:27:06;;;;;;;4.32;2.20;;;4.30;97.50;;;;;;5053413;28;20437;-68
2022/05/30 00:29:32;;;;;;;6.00;2.78;;;4.20;97.50;;;;;;5054066;28;20051;-67
2022/05/30 00:31:58;;;;;;;6.82;3.08;;;4.10;97.60;;;;;;5040102;28;20071;-67
2022/05/30 00:34:24;;;;;;;6.45;2.80;;;4.00;97.60;;;;;;5049041;28;20032;-69
2022/05/30 00:36:49;;;;;;;5.15;2.50;;;3.90;97.70;;;;;;5050834;28;20107;-67
2022/05/30 00:39:15;;;;;;;7.47;2.70;;;3.90;97.80;;;;;;5053985;28;20103;-68
2022/05/30 00:41:41;;;;;;;5.85;2.60;;;3.90;97.80;;;;;;5049064;28;20049;-68
2022/05/30 00:44:07;;;;;;;7.65;2.92;;;3.90;97.70;;;;;;5053043;28;20037;-68
2022/05/30 00:46:32;;;;;;;4.78;2.53;;;3.90;97.70;;;;;;5050676;28;20018;-68
2022/05/30 00:49:01;;;;;;;7.25;2.60;;;3.80;97.60;;;;;;5053946;28;20033;-68
2022/05/30 00:51:32;;;;;;;5.45;2.75;;;3.80;97.60;;;;;;5049047;28;20028;-68
2022/05/30 00:53:59;;;;;;;6.18;2.58;;;3.90;97.60;;;;;;5052202;28;20471;-69
2022/05/30 00:56:30;;;;;;;7.18;2.70;;;4.00;97.60;;;;;;5050393;28;20075;-68
2022/05/30 00:58:57;;;;;;;7.75;2.67;;;4.10;97.60;;;;;;5050650;28;20033;-68
2022/05/30 01:01:23;;;;;;;7.50;3.00;;;4.10;97.90;;;;;;5051152;28;20468;-68
2022/05/30 01:06:44;;;;;;;5.35;2.67;;;4.30;97.80;;;;;;5047077;28;20113;-68
2022/05/30 01:09:17;;;;;;;5.82;2.90;;;4.30;97.80;;;;;;5049710;28;20064;-68
2022/05/30 01:11:56;;;;;;;6.30;3.50;;;4.30;97.70;;;;;;5052586;28;20037;-69
2022/05/30 01:14:24;;;;;;;5.45;2.70;;;4.20;97.70;;;;;;5052436;28;20025;-68
2022/05/30 01:16:50;;;;;;;5.55;2.53;;;4.20;97.60;;;;;;5049631;28;20025;-68
2022/05/30 01:19:41;;;;;;;4.28;2.90;;;4.10;97.60;;;;;;5045335;28;20033;-67
2022/05/30 01:22:36;;;;;;;9.40;2.83;;;4.10;97.50;;;;;;5051105;28;20025;-68
2022/05/30 01:25:15;;;;;;;10.25;2.90;;;4.00;97.20;;;;;;5043988;28;20580;-67
2022/05/30 01:28:22;;;;;;;9.95;2.97;;;3.90;97.10;;;;;;5049609;28;20094;-67
2022/05/30 01:30:49;;;;;;;5.10;2.80;;;3.90;97.10;;;;;;5049806;28;20029;-67
2022/05/30 01:33:15;;;;;;;5.32;2.70;;;3.90;96.90;;;;;;5051829;28;20107;-68
2022/05/30 01:35:42;;;;;;;8.25;3.00;;;4.00;97.40;;;;;;5052023;28;20841;-69
2022/05/30 01:38:07;;;;;;;6.20;3.00;;;4.10;97.40;;;;;;5050231;28;20083;-69
2022/05/30 01:40:33;;;;;;;8.48;2.97;;;3.80;97.60;;;;;;5050726;28;20052;-68
2022/05/30 01:42:59;;;;;;;5.32;2.85;;;3.60;97.00;;;;;;5041026;28;20057;-68
2022/05/30 01:45:25;;;;;;;6.13;3.00;;;3.40;97.10;;;;;;5050154;28;20075;-68
2022/05/30 01:47:52;;;;;;;5.55;3.20;;;3.20;96.90;;;;;;5051822;28;20052;-68
2022/05/30 01:50:18;;;;;;;5.05;3.10;;;3.00;95.70;;;;;;5046576;28;20036;-68
2022/05/30 01:52:45;;;;;;;6.13;2.70;;;2.80;95.70;;;;;;5048410;28;20486;-68
2022/05/30 01:55:11;;;;;;;6.82;2.95;;;2.70;94.90;;;;;;5053324;28;20041;-69
2022/05/30 01:57:39;;;;;;;5.43;3.03;;;2.60;93.90;;;;;;5049993;28;20128;-68
2022/05/30 02:00:10;;;;;;;5.32;3.30;;;2.70;93.60;;;;;;5044469;28;20376;-68
2022/05/30 02:02:36;;;;;;;5.47;3.15;;;2.80;93.70;;;;;;5050948;28;20025;-68
2022/05/30 02:05:02;;;;;;;6.38;3.53;;;2.60;94.00;;;;;;5050425;28;20013;-68
2022/05/30 02:07:27;;;;;;;6.05;3.40;;;2.70;93.10;;;;;;5053410;28;20025;-68
2022/05/30 02:09:53;;;;;;;7.18;3.38;;;3.00;92.50;;;;;;5054765;28;20032;-68
2022/05/30 02:12:19;;;;;;;6.78;3.30;;;3.20;93.00;;;;;;5055246;28;20048;-68
2022/05/30 02:14:46;;;;;;;5.38;3.03;;;3.30;93.40;;;;;;5052956;28;20051;-68
2022/05/30 02:17:12;;;;;;;7.07;3.40;;;3.40;94.10;;;;;;5054489;28;20352;-68
2022/05/30 02:19:40;;;;;;;5.35;3.10;;;3.40;94.60;;;;;;5055387;28;20037;-68
2022/05/30 02:22:09;;;;;;;5.05;3.10;;;3.50;95.00;;;;;;5055921;28;20036;-68
2022/05/30 02:24:35;;;;;;;5.45;3.00;;;3.60;95.50;;;;;;5054340;28;20033;-69
2022/05/30 02:27:02;;;;;;;5.50;2.90;;;3.70;95.90;;;;;;5050182;28;20029;-68
2022/05/30 02:29:28;;;;;;;11.50;4.28;;;3.70;95.80;;;;;;5052978;28;20025;-68
2022/05/30 02:31:53;;;;;;;5.43;3.17;;;3.70;95.90;;;;;;5052567;28;20043;-68
2022/05/30 02:37:03;;;;;;;5.82;3.28;;;3.60;95.80;;;;;;5057775;28;20460;-68
2022/05/30 02:39:31;;;;;;;7.93;3.50;;;3.60;95.10;;;;;;5053966;28;20030;-68
2022/05/30 02:41:57;;;;;;;6.68;3.60;;;3.60;95.20;;;;;;5055524;28;20303;-68
2022/05/30 02:44:24;;;;;;;5.18;3.47;;;3.60;95.30;;;;;;5055181;28;20043;-68
2022/05/30 02:46:54;;;;;;;4.90;3.17;;;3.60;95.20;;;;;;5055179;28;20037;-68
2022/05/30 02:49:20;;;;;;;9.98;3.30;;;3.50;94.50;;;;;;5053862;28;20032;-68
2022/05/30 02:51:47;;;;;;;8.73;3.63;;;3.50;94.80;;;;;;5054906;28;20418;-68
2022/05/30 02:54:13;;;;;;;6.70;3.58;;;3.40;95.20;;;;;;5052834;28;20032;-68
2022/05/30 02:56:40;;;;;;;7.45;3.78;;;3.20;94.50;;;;;;5044308;28;20329;-68
2022/05/30 02:59:06;;;;;;;6.90;3.70;;;3.10;94.10;;;;;;5057999;28;20037;-68
2022/05/30 03:01:33;;;;;;;7.85;3.88;;;3.00;93.10;;;;;;5050317;28;20017;-68
2022/05/30 03:04:01;;;;;;;6.95;4.15;;;3.10;92.80;;;;;;5054153;28;20029;-68
2022/05/30 03:06:27;;;;;;;6.47;4.15;;;3.20;92.50;;;;;;5053049;28;20020;-68
2022/05/30 03:08:53;;;;;;;8.98;4.97;;;3.20;93.00;;;;;;5056265;28;20064;-68
2022/05/30 03:11:19;;;;;;;8.38;4.80;;;3.20;91.30;;;;;;5053615;28;20048;-69
2022/05/30 03:13:44;;;;;;;8.55;4.53;;;3.30;92.30;;;;;;5055357;28;20043;-68
2022/05/30 03:16:10;;;;;;;8.43;4.75;;;3.20;92.80;;;;;;5053897;28;20452;-68
2022/05/30 03:18:36;;;;;;;10.48;5.70;;;3.10;92.30;;;;;;5051902;28;20051;-68
2022/05/30 03:21:03;;;;;;;9.02;4.97;;;3.10;91.70;;;;;;5052855;28;20460;-68
2022/05/30 03:23:29;;;;;;;12.10;5.25;;;3.20;91.70;;;;;;5055217;28;20041;-68
2022/05/30 03:25:55;;;;;;;9.65;4.80;;;3.20;91.80;;;;;;5044481;28;20025;-68
2022/05/30 03:28:21;;;;;;;9.52;5.28;;;3.10;91.90;;;;;;5055189;28;20029;-68
2022/05/30 03:30:46;;;;;;;6.72;4.70;;;3.10;91.30;;;;;;5055522;28;20029;-68
2022/05/30 03:33:15;;;;;;;8.85;5.50;;;3.10;90.80;;;;;;5055995;28;20048;-68
2022/05/30 03:35:40;;;;;;;10.75;5.95;;;3.20;91.20;;;;;;5048735;28;20330;-68
2022/05/30 03:38:07;;;;;;;11.60;5.72;;;3.20;91.00;;;;;;5052584;28;20051;-68
2022/05/30 03:40:36;;;;;;;10.18;6.30;;;3.20;90.70;;;;;;5051663;28;20039;-68
2022/05/30 03:43:04;;;;;;;10.57;5.97;;;3.20;90.90;;;;;;5054820;28;20107;-68
2022/05/30 03:45:30;;;;;;;11.63;6.03;;;3.20;90.70;;;;;;5054893;28;20040;-68
2022/05/30 03:47:56;;;;;;;7.35;5.53;;;3.10;91.00;;;;;;5050585;28;20401;-68
2022/05/30 03:50:24;;;;;;;15.05;6.30;;;3.10;91.00;;;;;;5054250;28;20037;-68
2022/05/30 03:52:51;;;;;;;10.73;5.82;;;3.10;90.90;;;;;;5052524;28;20029;-68
2022/05/30 03:55:18;;;;;;;11.80;5.97;;;3.10;90.30;;;;;;5053103;28;20040;-68
2022/05/30 03:57:45;;;;;;;8.18;5.40;;;3.20;90.10;;;;;;5051377;28;20043;-68
2022/05/30 04:00:15;;;;;;;8.00;5.18;;;3.30;90.60;;;;;;5052143;28;20025;-68
2022/05/30 04:02:41;;;;;;;8.68;5.90;;;3.20;90.10;;;;;;5053687;28;20372;-68
2022/05/30 04:05:16;;;;;;;9.07;5.93;;;3.20;90.10;;;;;;5054409;28;20021;-68
2022/05/30 04:07:44;;;;;;;13.18;5.55;;;3.30;89.90;;;;;;5052087;28;20026;-68
2022/05/30 04:10:10;;;;;;;11.10;5.07;;;3.30;90.20;;;;;;5051521;28;20060;-68
2022/05/30 04:12:36;;;;;;;8.23;4.80;;;3.30;90.50;;;;;;5052435;28;20061;-68
2022/05/30 04:15:05;;;;;;;7.85;4.72;;;3.30;90.40;;;;;;5054243;28;20025;-68
2022/05/30 04:17:40;;;;;;;7.55;4.22;;;3.30;90.30;;;;;;5054538;28;20100;-68
2022/05/30 04:20:06;;;;;;;6.53;4.20;;;3.30;90.50;;;;;;5054741;28;20037;-68
2022/05/30 04:22:33;;;;;;;8.23;5.03;;;3.30;90.50;;;;;;5053839;28;20029;-68
2022/05/30 04:24:59;;;;;;;9.13;5.13;;;3.20;91.30;;;;;;5053459;28;20028;-68
2022/05/30 04:27:24;;;;;;;8.57;4.80;;;3.10;90.70;;;;;;5054756;28;20334;-67
2022/05/30 04:29:50;;;;;;;7.18;4.43;;;3.10;90.90;;;;;;5053762;28;20029;-69
2022/05/30 04:32:17;;;;;;;9.55;4.28;;;3.00;90.80;;;;;;5055420;28;20452;-69
2022/05/30 04:34:43;;;;;;;6.60;4.18;;;3.00;90.80;;;;;;5055012;28;20052;-68
2022/05/30 04:37:09;;;;;;;8.57;5.15;;;2.90;91.10;;;;;;5055999;28;20100;-68
2022/05/30 04:39:35;;;;;;;6.65;3.97;;;2.80;91.00;;;;;;5051358;28;20325;-68
2022/05/30 04:42:04;;;;;;;8.05;4.70;;;2.80;90.50;;;;;;5054240;28;20031;-69
2022/05/30 04:44:31;;;;;;;8.90;5.53;;;2.90;89.90;;;;;;5049872;28;20025;-69
2022/05/30 04:46:58;;;;;;;8.32;5.70;;;2.90;90.40;;;;;;5050983;28;20032;-69
2022/05/30 04:49:25;;;;;;;11.02;5.90;;;2.90;90.20;;;;;;5054745;28;20482;-68
2022/05/30 04:51:52;;;;;;;9.77;5.53;;;2.80;90.10;;;;;;5053826;28;20093;-68
2022/05/30 04:54:19;;;;;;;8.20;4.28;;;2.80;89.80;;;;;;5052670;28;20021;-68
2022/05/30 04:56:45;;;;;;;9.07;5.65;;;3.00;88.70;;;;;;5053180;28;20033;-68
2022/05/30 04:59:13;;;;;;;7.70;4.25;;;3.00;89.80;;;;;;5053455;28;20044;-68
2022/05/30 05:01:39;;;;;;;12.02;5.10;;;3.00;89.70;;;;;;5055021;28;20021;-69
2022/05/30 05:04:07;;;;;;;10.52;4.93;;;3.10;90.00;;;;;;5048804;28;20122;-68
2022/05/30 05:06:33;;;;;;;7.82;4.00;;;3.20;89.30;;;;;;5046221;28;20367;-69
2022/05/30 05:08:59;;;;;;;5.80;3.60;;;3.30;89.50;;;;;;5053278;28;20021;-68
2022/05/30 05:11:30;;;;;;;7.10;4.40;;;3.50;88.30;;;;;;5054036;28;20032;-68
2022/05/30 05:13:56;;;;;;;8.43;4.22;;;3.60;89.00;;;;;;5054056;28;20031;-68
2022/05/30 05:16:25;;;;;;;7.72;4.15;;;3.80;89.30;;;;;;5052833;28;20488;-69
2022/05/30 05:18:51;;;;;;;10.00;4.18;;;3.90;89.50;;;;;;5052208;28;20036;-68
2022/05/30 05:21:23;;;;;;;7.10;4.32;;;4.10;90.00;;;;;;5055251;28;20422;-68
2022/05/30 05:23:49;;;;;;;11.48;4.60;;;4.20;90.20;;;;;;5054007;28;20029;-68
2022/05/30 05:26:16;;;;;;;8.10;4.55;;;4.40;90.30;;;;;;5054949;28;20036;-68
2022/05/30 05:28:42;;;;;;;10.10;4.15;;;4.60;90.10;;;;;;5054669;28;20460;-68
2022/05/30 05:31:09;;;;;;;9.10;4.15;;;4.80;91.40;;;;;;5053601;28;20025;-69
2022/05/30 05:33:35;;;;;;;8.27;3.70;;;5.00;93.10;;;;;;5053232;28;20294;-68
2022/05/30 05:36:01;;;;;;;6.22;4.00;;;5.10;93.80;;;;;;5051366;28;20039;-68
2022/05/30 05:38:28;;;;;;;9.77;6.05;;;5.30;94.60;;;;;;5054307;28;20049;-68
2022/05/30 05:40:54;;;;;;;7.90;4.85;;;5.50;95.70;;;;;;5049077;28;20114;-68
2022/05/30 05:43:20;;;;;;;5.38;3.83;;;5.70;96.90;;;;;;5052858;28;20130;-68
2022/05/30 05:45:46;;;;;;;9.15;3.53;;;6.00;97.50;;;;;;5053407;28;20025;-68
2022/05/30 05:48:13;;;;;;;6.97;3.45;;;6.20;98.00;;;;;;5050228;28;20437;-68
2022/05/30 05:50:43;;;;;;;6.47;3.38;;;6.40;98.00;;;;;;5051619;28;20029;-68
2022/05/30 05:53:10;;;;;;;7.50;3.33;;;6.50;98.00;;;;;;5054356;28;20025;-68
2022/05/30 05:55:37;;;;;;;10.05;3.50;;;6.70;98.00;;;;;;5049312;28;20430;-68
2022/05/30 05:58:04;;;;;;;9.75;3.50;;;6.90;98.00;;;;;;5052243;28;20287;-68
2022/05/30 06:00:31;;;;;;;8.27;3.67;;;7.10;97.80;;;;;;5052218;28;20044;-68
2022/05/30 06:02:57;;;;;;;6.35;3.33;;;7.20;97.80;;;;;;5054491;28;20017;-68
2022/05/30 06:05:23;;;;;;;6.78;3.00;;;7.40;97.50;;;;;;5059139;28;20318;-68
2022/05/30 06:07:49;;;;;;;10.32;3.28;;;7.50;97.60;;;;;;5053220;28;20029;-68
2022/05/30 06:10:15;;;;;;;5.00;2.95;;;7.60;97.60;;;;;;5053648;28;20436;-68
2022/05/30 06:12:45;;;;;;;7.85;3.40;;;7.70;97.50;;;;;;5054581;28;20028;-68
2022/05/30 06:15:17;;;;;;;7.40;3.15;;;7.70;97.40;;;;;;5056588;28;20025;-68
2022/05/30 06:17:44;;;;;;;5.97;3.05;;;7.90;97.20;;;;;;5052430;28;20334;-69
2022/05/30 06:20:12;;;;;;;5.00;2.75;;;8.00;97.20;;;;;;5054303;28;20040;-68
2022/05/30 06:22:38;;;;;;;6.95;3.00;;;8.10;96.90;;;;;;5053401;28;20313;-68
2022/05/30 06:25:05;;;;;;;7.93;3.03;;;8.30;96.80;;;;;;5054111;28;20017;-68
2022/05/30 06:27:31;;;;;;;10.07;2.90;;;8.40;96.10;;;;;;5051691;28;20029;-68
2022/05/30 06:30:00;;;;;;;5.32;2.70;;;8.50;95.90;;;;;;5057001;28;20082;-68
2022/05/30 06:32:26;;;;;;;5.63;2.42;;;8.70;95.60;;;;;;5048401;28;20087;-68
2022/05/30 06:34:52;;;;;;;5.53;2.58;;;8.70;94.90;;;;;;5053093;28;20037;-68
2022/05/30 06:37:18;;;;;;;6.47;2.88;;;8.80;94.50;;;;;;5053662;28;20033;-68
2022/05/30 06:39:44;;;;;;;6.13;3.03;;;8.90;94.20;;;;;;5053854;28;20044;-68
2022/05/30 06:42:12;;;;;;;8.13;3.28;;;8.90;93.30;;;;;;5051205;28;20452;-69
2022/05/30 06:44:38;;;;;;;4.57;2.70;;;9.00;93.40;;;;;;5054117;28;20410;-69
2022/05/30 06:47:07;;;;;;;4.32;2.72;;;9.20;93.60;;;;;;5053356;28;20029;-68
2022/05/30 06:49:40;;;;;;;5.57;2.90;;;9.40;93.10;;;;;;5052840;28;20018;-68
2022/05/30 06:52:06;;;;;;;6.45;2.72;;;9.50;92.60;;;;;;5054202;28;20025;-68
2022/05/30 06:54:31;;;;;;;5.40;2.50;;;9.70;92.40;;;;;;5059003;28;20303;-68
2022/05/30 06:59:41;;;;;;;6.18;2.45;;;9.90;91.20;;;;;;5058846;28;20032;-68
2022/05/30 07:02:07;;;;;;;5.38;2.38;;;10.10;91.20;;;;;;5057930;28;20037;-68
2022/05/30 07:04:35;;;;;;;6.07;2.60;;;10.20;90.70;;;;;;5056852;28;20036;-68
2022/05/30 07:07:07;;;;;;;6.00;2.95;;;10.40;90.30;;;;;;5055881;28;20033;-68
2022/05/30 07:09:34;;;;;;;7.95;2.63;;;10.60;89.70;;;;;;5056823;28;20028;-68
2022/05/30 07:12:00;;;;;;;4.30;2.05;;;10.70;88.70;;;;;;5055711;28;20040;-68
2022/05/30 07:14:26;;;;;;;6.22;2.92;;;10.80;88.50;;;;;;5058368;28;20383;-68
2022/05/30 07:16:51;;;;;;;8.50;2.60;;;10.90;88.40;;;;;;5057657;28;20108;-68
2022/05/30 07:19:17;;;;;;;6.15;2.53;;;11.20;87.50;;;;;;5057298;28;20029;-68
2022/05/30 07:21:43;;;;;;;7.10;2.50;;;11.40;86.40;;;;;;5056521;28;20038;-68
2022/05/30 07:24:13;;;;;;;6.65;2.25;;;11.60;85.50;;;;;;5058361;28;20025;-70
2022/05/30 07:26:39;;;;;;;7.05;2.90;;;12.30;85.20;;;;;;5055325;28;20056;-70
2022/05/30 07:29:05;;;;;;;7.22;2.28;;;13.10;81.40;;;;;;5058465;28;20028;-69
2022/05/30 07:31:31;;;;;;;9.10;2.22;;;14.10;80.10;;;;;;5057241;28;20032;-69
2022/05/30 07:33:57;;;;;;;6.53;2.22;;;15.10;76.90;;;;;;5054509;28;20037;-69
2022/05/30 07:36:29;;;;;;;5.95;1.58;;;15.80;75.00;;;;;;5055468;28;20052;-69
2022/05/30 07:38:55;;;;;;;5.20;2.08;;;16.60;73.30;;;;;;5057207;28;20060;-69
2022/05/30 07:41:22;;;;;;;6.03;2.10;;;16.50;71.40;;;;;;5056846;28;20365;-69
2022/05/30 07:43:48;;;;;;;4.15;1.80;;;16.70;72.70;;;;;;5057826;28;20036;-69
2022/05/30 07:46:16;;;;;;;4.70;1.70;;;16.70;71.10;;;;;;5058096;28;20032;-69
2022/05/30 07:48:42;;;;;;;5.72;2.03;;;16.80;70.00;;;;;;5056573;28;20025;-69
2022/05/30 07:51:10;;;;;;;5.03;1.85;;;17.30;69.90;;;;;;5057733;28;20060;-69
2022/05/30 07:53:38;;;;;;;5.53;1.92;;;16.90;69.60;;;;;;5056112;28;20029;-69
2022/05/30 07:56:09;;;;;;;3.97;1.70;;;16.80;70.60;;;;;;5056743;28;20407;-69
2022/05/30 07:58:36;;;;;;;6.50;2.10;;;16.80;69.90;;;;;;5056822;28;20059;-69
2022/05/30 08:01:06;;;;;;;6.38;1.80;;;16.60;70.50;;;;;;5056868;28;20025;-69
2022/05/30 08:03:32;;;;;;;5.35;1.83;;;16.80;69.00;;;;;;5054506;28;20013;-69
2022/05/30 08:06:12;;;;;;;6.47;1.58;;;17.50;67.20;;;;;;5054925;28;20384;-69
2022/05/30 08:08:38;;;;;;;3.90;1.42;;;18.20;66.10;;;;;;5054744;28;20418;-69
2022/05/30 08:11:04;;;;;;;4.43;1.63;;;18.80;65.30;;;;;;5052837;28;20039;-69
2022/05/30 08:13:31;;;;;;;4.85;1.63;;;19.00;64.50;;;;;;5056003;28;20017;-69
2022/05/30 08:15:56;;;;;;;5.68;1.90;;;17.90;64.30;;;;;;5057267;28;20031;-69
2022/05/30 08:18:22;;;;;;;5.15;1.50;;;17.50;65.80;;;;;;5056368;28;20115;-69
2022/05/30 08:20:48;;;;;;;5.03;1.25;;;17.70;65.60;;;;;;5057198;28;20025;-69
2022/05/30 08:23:14;;;;;;;5.15;1.60;;;18.10;64.10;;;;;;5056278;28;20351;-69
2022/05/30 08:25:40;;;;;;;3.22;1.30;;;18.10;63.90;;;;;;5055002;28;20159;-69
2022/05/30 08:28:06;;;;;;;5.30;1.52;;;18.50;61.80;;;;;;5055764;28;20047;-68
2022/05/30 08:30:32;;;;;;;3.72;1.23;;;19.00;61.00;;;;;;5055779;28;20418;-69
2022/05/30 08:32:57;;;;;;;2.85;1.10;;;19.60;58.90;;;;;;5057204;28;20029;-69
2022/05/30 08:35:23;;;;;;;4.00;1.30;;;19.10;57.10;;;;;;5055949;28;20649;-69
2022/05/30 08:37:50;;;;;;;6.10;1.30;;;18.10;58.20;;;;;;5057051;28;20130;-69
2022/05/30 08:43:26;;;;;;;;;;;17.40;61.10;;;;;;5037658;28;20072;-68
2022/05/30 08:46:08;;;;;;;5.82;1.50;;;16.40;62.00;;;;;;5044848;28;20007;-68
2022/05/30 08:48:52;;;;;;;4.25;1.40;;;15.20;64.30;;;;;;5056918;28;20368;-69
2022/05/30 08:51:53;;;;;;;3.90;1.60;;;14.30;68.40;;;;;;5055564;28;20104;-68
2022/05/30 08:54:31;;;;;;;3.40;1.60;;;14.60;69.40;;;;;;5053595;28;20021;-68
2022/05/30 08:57:00;;;;;;;6.63;1.90;;;15.40;66.30;;;;;;5051364;28;20033;-68
2022/05/30 09:00:04;;;;;;;5.78;1.55;;;15.50;64.10;;;;;;5054097;28;20032;-68
2022/05/30 09:02:55;;;;;;;3.85;1.60;;;16.10;65.00;;;;;;5054153;28;20063;-69
2022/05/30 09:05:33;;;;;;;7.85;1.65;;;16.90;63.30;;;;;;5054330;28;20464;-69
2022/05/30 09:08:04;;;;;;;3.80;1.38;;;16.00;65.20;;;;;;5052476;28;20029;-68
2022/05/30 09:10:41;;;;;;;3.78;1.25;;;15.30;65.10;;;;;;5054074;28;20029;-68
2022/05/30 09:13:29;;;;;;;4.40;1.42;;;15.10;65.00;;;;;;5058496;28;20021;-68
2022/05/30 09:16:13;;;;;;;3.65;1.67;;;14.80;66.50;;;;;;5052259;28;20087;-68
2022/05/30 09:18:45;;;;;;;5.78;1.60;;;15.70;67.40;;;;;;5055035;28;20112;-68
2022/05/30 09:21:11;;;;;;;4.03;1.50;;;17.00;63.40;;;;;;5052023;28;20527;-68
2022/05/30 09:23:37;;;;;;;4.20;1.50;;;16.50;62.10;;;;;;5054889;28;20031;-69
2022/05/30 09:26:11;;;;;;;5.25;1.30;;;16.10;63.20;;;;;;5052793;28;20090;-68
2022/05/30 09:28:43;;;;;;;3.92;1.50;;;15.70;64.00;;;;;;5051936;28;20017;-68
2022/05/30 09:31:20;;;;;;;4.72;1.70;;;15.60;63.30;;;;;;5054990;28;20056;-68
2022/05/30 09:33:53;;;;;;;7.10;1.83;;;15.90;63.10;;;;;;5054414;28;20049;-68
2022/05/30 09:36:27;;;;;;;4.45;1.50;;;16.50;62.30;;;;;;5054682;28;20021;-68
2022/05/30 09:39:04;;;;;;;3.75;1.50;;;17.40;61.00;;;;;;5054312;28;20118;-68
2022/05/30 09:41:48;;;;;;;4.68;1.42;;;18.10;60.40;;;;;;5052823;28;20025;-68
2022/05/30 09:44:24;;;;;;;4.87;1.20;;;19.10;56.10;;;;;;5054308;28;20108;-68
2022/05/30 09:47:06;;;;;;;3.90;1.17;;;19.80;54.30;;;;;;5054387;28;20286;-68
2022/05/30 09:49:47;;;;;;;3.80;1.20;;;20.90;52.80;;;;;;5051532;28;20032;-68
2022/05/30 09:52:37;;;;;;;3.17;1.30;;;21.30;52.50;;;;;;5053820;28;20040;-69
2022/05/30 09:55:24;;;;;;;3.45;1.20;;;21.60;52.80;;;;;;5053753;28;20029;-69
2022/05/30 09:57:50;;;;;;;3.45;1.23;;;21.90;52.00;;;;;;5056106;28;20511;-69
2022/05/30 10:00:24;;;;;;;5.88;1.50;;;21.70;53.30;;;;;;5052541;28;20074;-69
2022/05/30 10:03:00;;;;;;;3.70;1.30;;;22.10;52.20;;;;;;5053152;28;20025;-69
2022/05/30 10:05:29;;;;;;;3.97;1.27;;;22.50;49.30;;;;;;5054170;28;20040;-69
2022/05/30 10:07:59;;;;;;;3.97;1.60;;;21.80;51.30;;;;;;5050437;28;20406;-68
2022/05/30 10:10:29;;;;;;;4.85;1.23;;;21.40;52.50;;;;;;5047133;28;20033;-68
2022/05/30 10:13:00;;;;;;;4.93;1.50;;;20.70;52.50;;;;;;5049396;28;20428;-68
2022/05/30 10:15:27;;;;;;;4.18;1.27;;;20.40;53.00;;;;;;5055128;28;20032;-68
2022/05/30 10:17:55;;;;;;;3.72;1.20;;;20.40;54.80;;;;;;5054087;28;20021;-68
2022/05/30 10:20:36;;;;;;;3.63;1.30;;;21.00;51.90;;;;;;5053611;28;20409;-70
2022/05/30 10:28:56;;;;;;;3.47;1.33;;;20.90;50.50;;;;;;5057584;28;20086;-69
2022/05/30 10:31:30;;;;;;;2.83;1.13;;;20.70;52.00;;;;;;5057619;28;20024;-69
2022/05/30 10:34:18;;;;;;;4.28;1.20;;;20.50;54.50;;;;;;5055027;28;20063;-69
2022/05/30 10:36:53;;;;;;;2.55;1.10;;;20.40;52.70;;;;;;5039277;28;20018;-69
2022/05/30 10:39:46;;;;;;;4.90;1.42;;;20.70;54.10;;;;;;5046641;28;20029;-68
2022/05/30 10:42:47;;;;;;;3.45;1.30;;;20.80;51.50;;;;;;5056104;28;20078;-68
2022/05/30 10:45:18;;;;;;;6.05;1.20;;;20.00;51.40;;;;;;5047473;28;20029;-69
2022/05/30 10:47:48;;;;;;;5.45;1.42;;;20.60;52.40;;;;;;5059114;28;20021;-68
2022/05/30 10:50:43;;;;;;;3.63;1.45;;;20.30;52.80;;;;;;5058090;28;20345;-68
2022/05/30 10:53:33;;;;;;;3.25;1.27;;;20.40;53.30;;;;;;5040219;28;20419;-69
2022/05/30 10:56:09;;;;;;;5.07;1.55;;;19.70;52.50;;;;;;5053418;28;20078;-68
2022/05/30 10:58:52;;;;;;;4.68;1.27;;;19.60;52.30;;;;;;5053104;28;20039;-68
2022/05/30 11:01:47;;;;;;;4.85;1.48;;;19.40;53.60;;;;;;5057390;28;20025;-68
2022/05/30 11:04:26;;;;;;;3.67;1.17;;;19.50;52.60;;;;;;5056995;28;20154;-68
2022/05/30 11:06:55;;;;;;;4.82;1.40;;;19.40;52.70;;;;;;5057654;28;20104;-68
2022/05/30 11:09:31;;;;;;;2.85;1.15;;;20.10;51.10;;;;;;5057558;28;20036;-68
2022/05/30 11:12:22;;;;;;;4.25;1.55;;;20.30;52.30;;;;;;5056767;28;20028;-68
2022/05/30 11:14:59;;;;;;;4.95;1.33;;;20.10;51.80;;;;;;5056715;28;20029;-68
2022/05/30 11:17:40;;;;;;;3.75;1.30;;;19.70;52.70;;;;;;5059195;28;20074;-68
2022/05/30 11:20:22;;;;;;;5.28;1.40;;;20.10;53.80;;;;;;5056036;28;20025;-68
2022/05/30 11:22:52;;;;;;;5.22;1.20;;;19.90;51.20;;;;;;5055875;28;20033;-68
2022/05/30 11:25:33;;;;;;;4.55;1.55;;;19.90;52.40;;;;;;5058532;28;20314;-68
2022/05/30 11:28:24;;;;;;;4.22;1.58;;;20.20;52.60;;;;;;5057228;28;20047;-68
2022/05/30 11:30:56;;;;;;;4.47;1.58;;;20.00;52.20;;;;;;5058218;28;20032;-68
2022/05/30 11:33:30;;;;;;;5.07;1.33;;;19.90;51.90;;;;;;5055964;28;20039;-68
2022/05/30 11:36:16;;;;;;;3.75;1.30;;;19.30;51.70;;;;;;5058378;28;20021;-68
2022/05/30 11:39:21;;;;;;;3.03;1.13;;;19.00;52.00;;;;;;5057162;28;20049;-68
2022/05/30 11:42:15;;;;;;;2.45;1.20;;;19.10;52.60;;;;;;5062051;28;20037;-68
2022/05/30 11:44:48;;;;;;;4.55;1.20;;;19.20;53.10;;;;;;5058105;28;20017;-68
2022/05/30 11:47:37;;;;;;;4.70;1.20;;;19.30;53.00;;;;;;5057791;28;20422;-68
2022/05/30 11:50:31;;;;;;;3.50;1.33;;;19.70;51.50;;;;;;5055852;28;20044;-68
2022/05/30 11:53:23;;;;;;;3.80;1.03;;;19.40;51.50;;;;;;5038138;28;20032;-68
2022/05/30 11:56:09;;;;;;;3.88;1.15;;;19.10;52.30;;;;;;5049568;28;20044;-68
2022/05/30 11:58:38;;;;;;;5.43;2.22;;;19.10;50.60;;;;;;5057309;28;20378;-68
2022/05/30 12:01:05;;;;;;;4.00;1.60;;;18.70;52.50;;;;;;5057183;28;20036;-68
2022/05/30 12:03:34;;;;;;;4.75;1.77;;;18.00;52.80;;;;;;5057504;28;20063;-68
2022/05/30 12:06:25;;;;;;;3.83;1.10;;;17.90;53.20;;;;;;5057362;28;20112;-68
2022/05/30 12:09:21;;;;;;;3.70;1.40;;;18.70;52.00;;;;;;5057564;28;20017;-68
2022/05/30 12:12:28;;;;;;;3.13;1.20;;;19.30;51.00;;;;;;5042403;28;20039;-68
2022/05/30 12:15:22;;;;;;;2.22;1.02;;;19.70;52.00;;;;;;5056815;28;20385;-68
2022/05/30 12:24:19;;;;;;;4.40;1.30;;;19.70;50.20;;;;;;5055866;28;20032;-68
2022/05/30 12:26:54;;;;;;;3.60;1.00;;;19.90;49.10;;;;;;5052906;28;20060;-68
2022/05/30 12:29:44;;;;;;;2.75;1.02;;;20.40;51.40;;;;;;5054327;28;20059;-68
2022/05/30 12:32:21;;;;;;;3.15;1.10;;;20.90;48.50;;;;;;5056016;28;20040;-68
2022/05/30 12:35:18;;;;;;;5.57;1.13;;;21.20;48.70;;;;;;5055961;28;20100;-68
2022/05/30 12:37:51;;;;;;;2.78;0.90;;;21.40;49.00;;;;;;5055665;28;20080;-68
2022/05/30 12:40:22;;;;;;;6.05;1.25;;;21.60;47.90;;;;;;5054596;28;20021;-68
2022/05/30 12:43:02;;;;;;;2.35;1.02;;;20.70;48.10;;;;;;5054645;28;20017;-68
2022/05/30 12:45:36;;;;;;;4.45;0.95;;;20.80;48.60;;;;;;5052794;28;20078;-68
2022/05/30 12:48:24;;;;;;;2.80;1.00;;;21.40;46.80;;;;;;5056963;28;20087;-68
2022/05/30 12:50:50;;;;;;;3.63;1.13;;;20.50;46.60;;;;;;5056466;28;20025;-68
2022/05/30 12:53:17;;;;;;;3.08;1.08;;;19.80;47.70;;;;;;5055438;28;20307;-68
2022/05/30 12:55:46;;;;;;;4.30;1.30;;;20.80;47.20;;;;;;5051566;28;20457;-68
2022/05/30 12:58:22;;;;;;;2.55;1.00;;;22.30;46.70;;;;;;5053033;28;20048;-68
2022/05/30 13:01:09;;;;;;;3.13;0.95;;;22.60;45.70;;;;;;5055557;28;20436;-68
2022/05/30 13:03:44;;;;;;;2.97;1.05;;;22.10;45.60;;;;;;5055684;28;20025;-68
2022/05/30 13:06:20;;;;;;;3.45;1.35;;;22.70;46.30;;;;;;5054902;28;20044;-67
2022/05/30 13:09:01;;;;;;;3.30;1.00;;;23.60;46.20;;;;;;5054636;28;20109;-68
2022/05/30 13:12:00;;;;;;;2.97;1.00;;;23.20;44.60;;;;;;5053225;28;20025;-68
2022/05/30 13:14:40;;;;;;;4.40;1.05;;;22.40;44.10;;;;;;5055368;28;20032;-70
2022/05/30 13:17:18;;;;;;;3.67;1.10;;;20.90;46.00;;;;;;5055362;28;20056;-69
2022/05/30 13:19:57;;;;;;;2.45;0.80;;;22.00;46.70;;;;;;5052796;28;20384;-69
2022/05/30 13:22:41;;;;;;;2.97;1.10;;;22.80;46.40;;;;;;5054114;28;20310;-69
2022/05/30 13:25:12;;;;;;;2.87;1.00;;;23.50;45.60;;;;;;5054780;28;20032;-69
2022/05/30 13:27:38;;;;;;;2.65;1.00;;;23.10;43.80;;;;;;5054872;28;20021;-69
2022/05/30 13:30:20;;;;;;;2.53;0.90;;;23.70;45.00;;;;;;5055998;28;20047;-69
2022/05/30 13:32:45;;;;;;;2.40;0.85;;;24.10;44.10;;;;;;5035240;28;20427;-68
2022/05/30 13:35:13;;;;;;;2.95;1.10;;;23.00;44.20;;;;;;5036443;28;20029;-68
2022/05/30 13:37:45;;;;;;;2.70;1.00;;;22.80;43.90;;;;;;5053536;28;20099;-68